createdAt,value
2023-02-12T00:00:18.630Z,15.50
2023-02-12T00:03:07.512Z,16.52
2023-02-12T00:05:41.901Z,14.40
2023-02-12T00:08:34.243Z,13.10
2023-02-12T00:11:20.165Z,15.10
2023-02-12T00:13:50.259Z,20.52
2023-02-12T00:16:25.878Z,16.15
2023-02-12T00:19:03.310Z,17.83
2023-02-12T00:21:35.658Z,19.60
2023-02-12T00:26:36.523Z,19.40
2023-02-12T00:29:04.989Z,19.88
2023-02-12T00:31:33.929Z,19.90
2023-02-12T00:34:02.560Z,21.73
2023-02-12T00:36:37.362Z,19.45
2023-02-12T00:39:12.876Z,19.50
2023-02-12T00:41:47.930Z,14.68
2023-02-12T00:44:38.928Z,16.42
2023-02-12T00:47:08.982Z,18.63
2023-02-12T00:49:37.571Z,20.50
2023-02-12T00:52:06.616Z,19.02
2023-02-12T00:54:34.992Z,28.75
2023-02-12T00:57:04.367Z,32.88
2023-02-12T00:59:34.128Z,38.28
2023-02-12T01:02:02.865Z,34.08
2023-02-12T01:04:32.117Z,32.85
2023-02-12T01:07:00.876Z,35.28
2023-02-12T01:09:31.493Z,29.70
2023-02-12T01:12:03.441Z,44.83
2023-02-12T01:14:41.719Z,37.03
2023-02-12T01:17:23.965Z,28.30
2023-02-12T01:19:58.640Z,28.75
2023-02-12T01:22:27.748Z,27.88
2023-02-12T01:24:56.197Z,29.05
2023-02-12T01:27:27.632Z,30.23
2023-02-12T01:29:59.045Z,31.67
2023-02-12T01:32:28.166Z,28.23
2023-02-12T01:34:56.750Z,29.10
2023-02-12T01:40:34.184Z,27.42
2023-02-12T01:43:04.378Z,37.25
2023-02-12T01:45:46.911Z,32.40
2023-02-12T01:48:18.577Z,31.42
2023-02-12T01:50:49.340Z,32.75
2023-02-12T01:53:20.909Z,28.73
2023-02-12T01:55:53.224Z,27.27
2023-02-12T01:58:24.484Z,32.20
2023-02-12T02:00:54.907Z,36.53
2023-02-12T02:03:29.803Z,34.58
2023-02-12T02:06:07.938Z,37.30
2023-02-12T02:08:37.213Z,34.80
2023-02-12T02:11:25.858Z,31.80
2023-02-12T02:14:22.664Z,27.58
2023-02-12T02:17:14.322Z,25.90
2023-02-12T02:20:33.298Z,27.75
2023-02-12T02:23:20.160Z,27.65
2023-02-12T02:26:30.487Z,21.90
2023-02-12T02:29:37.438Z,20.00
2023-02-12T02:32:56.402Z,17.50
2023-02-12T02:35:41.753Z,24.65
2023-02-12T02:38:24.801Z,28.60
2023-02-12T02:41:06.419Z,21.13
2023-02-12T02:46:12.625Z,20.80
2023-02-12T02:48:50.596Z,23.23
2023-02-12T02:51:24.845Z,25.52
2023-02-12T02:54:15.422Z,24.52
2023-02-12T02:57:36.490Z,25.33
2023-02-12T03:03:49.183Z,31.13
2023-02-12T03:09:10.383Z,27.63
2023-02-12T03:11:39.641Z,31.48
2023-02-12T03:14:40.490Z,30.92
2023-02-12T03:17:28.170Z,26.27
2023-02-12T03:20:05.728Z,29.45
2023-02-12T03:22:40.460Z,28.30
2023-02-12T03:25:27.191Z,32.08
2023-02-12T03:28:11.734Z,27.92
2023-02-12T03:30:51.918Z,26.13
2023-02-12T03:33:34.411Z,29.85
2023-02-12T03:36:53.249Z,24.27
2023-02-12T03:39:49.747Z,23.73
2023-02-12T03:42:56.762Z,22.85
2023-02-12T03:45:45.382Z,25.77
2023-02-12T03:48:24.682Z,20.58
2023-02-12T03:50:53.641Z,22.98
2023-02-12T03:53:22.170Z,22.52
2023-02-12T03:55:56.056Z,22.65
2023-02-12T03:58:28.315Z,19.08
2023-02-12T04:00:57.439Z,18.00
2023-02-12T04:03:26.456Z,23.83
2023-02-12T04:05:55.387Z,17.38
2023-02-12T04:08:26.337Z,15.20
2023-02-12T04:11:37.790Z,17.08
2023-02-12T04:14:15.882Z,19.33
2023-02-12T04:17:06.510Z,15.88
2023-02-12T04:19:58.778Z,14.05
2023-02-12T04:23:05.723Z,16.02
2023-02-12T04:25:59.306Z,16.40
2023-02-12T04:28:41.234Z,16.88
2023-02-12T04:31:44.940Z,15.63
2023-02-12T04:34:16.060Z,17.65
2023-02-12T04:36:59.782Z,17.38
2023-02-12T04:39:31.744Z,19.40
2023-02-12T04:42:01.344Z,13.13
2023-02-12T04:44:33.779Z,16.63
2023-02-12T04:47:02.146Z,14.55
2023-02-12T04:49:30.994Z,14.15
2023-02-12T04:51:59.336Z,18.85
2023-02-12T04:54:27.966Z,17.10
2023-02-12T04:56:56.293Z,15.60
2023-02-12T04:59:25.265Z,20.40
2023-02-12T05:01:53.768Z,21.02
2023-02-12T05:04:22.437Z,26.15
2023-02-12T05:06:50.925Z,22.02
2023-02-12T05:09:21.272Z,16.52
2023-02-12T05:11:49.633Z,16.48
2023-02-12T05:14:18.496Z,17.75
2023-02-12T05:16:46.827Z,20.98
2023-02-12T05:19:15.806Z,19.27
2023-02-12T05:21:44.286Z,18.73
2023-02-12T05:24:13.284Z,20.30
2023-02-12T05:26:41.675Z,21.42
2023-02-12T05:29:10.636Z,20.08
2023-02-12T05:31:39.070Z,20.88
2023-02-12T05:34:11.238Z,24.45
2023-02-12T05:36:39.910Z,20.75
2023-02-12T05:39:08.543Z,20.98
2023-02-12T05:41:36.793Z,19.75
2023-02-12T05:44:06.711Z,21.00
2023-02-12T05:46:35.145Z,17.90
2023-02-12T05:49:03.988Z,18.23
2023-02-12T05:51:32.525Z,16.70
2023-02-12T05:54:04.551Z,19.38
2023-02-12T05:56:36.212Z,21.75
2023-02-12T06:01:41.813Z,18.80
2023-02-12T06:04:17.647Z,15.50
2023-02-12T06:06:46.461Z,16.55
2023-02-12T06:09:15.453Z,15.38
2023-02-12T06:11:44.658Z,14.48
2023-02-12T06:14:16.437Z,14.57
2023-02-12T06:16:47.086Z,14.15
2023-02-12T06:19:16.218Z,19.63
2023-02-12T06:21:44.672Z,15.02
2023-02-12T06:24:15.765Z,21.45
2023-02-12T06:26:44.284Z,22.60
2023-02-12T06:29:13.474Z,28.45
2023-02-12T06:31:43.180Z,23.30
2023-02-12T06:34:13.553Z,23.88
2023-02-12T06:36:44.746Z,16.02
2023-02-12T06:39:15.964Z,20.50
2023-02-12T06:41:44.777Z,18.95
2023-02-12T06:44:14.212Z,18.50
2023-02-12T06:46:42.718Z,14.60
2023-02-12T06:49:13.806Z,19.90
2023-02-12T06:51:42.618Z,19.00
2023-02-12T06:54:18.054Z,31.70
2023-02-12T06:56:46.427Z,27.08
2023-02-12T06:59:17.182Z,30.73
2023-02-12T07:01:46.088Z,23.88
2023-02-12T07:04:15.122Z,29.70
2023-02-12T07:06:43.550Z,27.73
2023-02-12T07:09:12.485Z,26.38
2023-02-12T07:11:42.770Z,25.42
2023-02-12T07:14:16.269Z,27.23
2023-02-12T07:16:45.998Z,30.67
2023-02-12T07:19:17.191Z,33.65
2023-02-12T07:21:45.699Z,32.67
2023-02-12T07:24:15.498Z,36.65
2023-02-12T07:26:44.349Z,34.58
2023-02-12T07:29:13.371Z,30.52
2023-02-12T07:31:42.127Z,23.73
2023-02-12T07:34:11.457Z,22.65
2023-02-12T07:36:39.986Z,25.60
2023-02-12T07:39:10.693Z,20.38
2023-02-12T07:41:39.110Z,21.70
2023-02-12T07:44:11.178Z,31.13
2023-02-12T07:46:48.201Z,33.25
2023-02-12T07:49:23.718Z,33.17
2023-02-12T07:51:52.306Z,30.52
2023-02-12T07:54:20.976Z,23.08
2023-02-12T07:56:49.399Z,26.27
2023-02-12T07:59:20.974Z,22.27
2023-02-12T08:01:51.658Z,28.48
2023-02-12T08:04:25.630Z,27.80
2023-02-12T08:06:56.596Z,25.27
2023-02-12T08:09:28.576Z,30.63
2023-02-12T08:11:57.385Z,30.05
2023-02-12T08:14:27.613Z,29.92
2023-02-12T08:16:56.289Z,33.33
2023-02-12T08:19:26.731Z,27.73
2023-02-12T08:21:57.153Z,21.92
2023-02-12T08:24:26.604Z,18.55
2023-02-12T08:26:55.768Z,22.67
2023-02-12T08:29:28.269Z,23.38
2023-02-12T08:32:02.208Z,24.02
2023-02-12T08:34:34.546Z,22.60
2023-02-12T08:37:06.045Z,16.33
2023-02-12T08:39:35.025Z,18.50
2023-02-12T08:42:06.108Z,17.05
2023-02-12T08:44:35.582Z,12.60
2023-02-12T08:47:04.157Z,17.98
2023-02-12T08:49:33.242Z,15.88
2023-02-12T08:52:02.701Z,17.65
2023-02-12T08:54:33.842Z,15.23
2023-02-12T08:57:03.932Z,16.92
2023-02-12T08:59:33.914Z,15.85
2023-02-12T09:02:04.601Z,17.67
2023-02-12T09:04:34.338Z,14.97
2023-02-12T09:07:02.596Z,15.27
2023-02-12T09:09:31.276Z,14.55
2023-02-12T09:11:59.684Z,10.30
2023-02-12T09:14:28.694Z,15.65
2023-02-12T09:16:58.515Z,16.55
2023-02-12T09:19:27.602Z,16.73
2023-02-12T09:21:57.127Z,13.18
2023-02-12T09:24:28.130Z,14.93
2023-02-12T09:26:57.126Z,11.70
2023-02-12T09:29:29.280Z,15.65
2023-02-12T09:31:59.779Z,15.80
2023-02-12T09:34:28.500Z,10.93
2023-02-12T09:36:56.966Z,11.32
2023-02-12T09:39:29.403Z,14.60
2023-02-12T09:42:19.875Z,17.92
2023-02-12T09:45:03.723Z,14.32
2023-02-12T09:48:01.664Z,16.58
2023-02-12T09:50:48.209Z,17.33
2023-02-12T09:53:19.733Z,19.15
2023-02-12T09:58:41.775Z,12.18
2023-02-12T10:01:15.850Z,13.48
2023-02-12T10:03:45.745Z,12.35
2023-02-12T10:06:49.406Z,15.50
2023-02-12T10:09:57.356Z,10.10
2023-02-12T10:12:52.562Z,13.13
2023-02-12T10:15:46.167Z,11.25
2023-02-12T10:18:43.967Z,13.82
2023-02-12T10:21:18.135Z,11.38
2023-02-12T10:24:05.100Z,9.38
2023-02-12T10:26:42.315Z,9.93
2023-02-12T10:29:17.945Z,9.40
2023-02-12T10:31:51.316Z,14.60
2023-02-12T10:34:26.420Z,16.23
2023-02-12T10:37:03.135Z,12.75
2023-02-12T10:39:49.082Z,12.85
2023-02-12T10:42:34.186Z,18.13
2023-02-12T10:45:02.928Z,15.00
2023-02-12T10:47:31.465Z,14.18
2023-02-12T10:50:13.979Z,13.55
2023-02-12T10:55:35.197Z,15.40
2023-02-12T10:58:05.215Z,23.85
2023-02-12T11:00:37.861Z,32.58
2023-02-12T11:05:48.607Z,18.85
2023-02-12T11:08:39.174Z,14.05
2023-02-12T11:11:37.190Z,17.98
2023-02-12T11:14:16.327Z,14.88
2023-02-12T11:16:59.299Z,14.07
2023-02-12T11:19:30.916Z,14.05
2023-02-12T11:22:18.963Z,16.42
2023-02-12T11:25:00.936Z,26.05
